Time;durP1;ratioP1;P1;durP2;ratioP2;P2;SDS_P1;SDS_P2;PMS_P1;PMS_P2;Temp;Humidity;BMP_temperature;BMP_pressure;BME280_temperature;BME280_humidity;BME280_pressure;Samples;Min_cycle;Max_cycle;Signal;HPM_P1;HPM_P2
2022/09/16 00:00:09;;;;;;;6.40;4.00;;;;;;;14.64;100.00;97613.88;5107597;28;20257;-64
2022/09/16 00:02:36;;;;;;;4.37;3.97;;;;;;;14.64;100.00;97613.88;5109853;28;20215;-64
2022/09/16 00:05:03;;;;;;;4.50;4.10;;;;;;;14.66;100.00;97617.25;5108984;28;20278;-65
2022/09/16 00:07:31;;;;;;;5.70;4.57;;;;;;;14.66;100.00;97617.25;5105932;28;20594;-65
2022/09/16 00:09:57;;;;;;;4.57;4.10;;;;;;;14.70;100.00;97607.97;5105672;28;20268;-65
2022/09/16 00:12:24;;;;;;;4.57;4.03;;;;;;;14.71;100.00;97612.31;5109704;28;20282;-64
2022/09/16 00:14:52;;;;;;;6.40;4.53;;;;;;;14.73;100.00;97610.38;5109176;28;20230;-65
2022/09/16 00:17:19;;;;;;;6.00;4.90;;;;;;;14.73;100.00;97615.69;5106009;28;20258;-65
2022/09/16 00:19:46;;;;;;;6.33;4.47;;;;;;;14.73;100.00;97615.69;5107066;28;20316;-66
2022/09/16 00:22:13;;;;;;;5.70;4.40;;;;;;;14.69;100.00;97608.97;5107684;28;20224;-63
2022/09/16 00:24:41;;;;;;;6.73;4.63;;;;;;;14.70;100.00;97614.16;5105771;28;20262;-65
2022/09/16 00:27:07;;;;;;;5.67;4.50;;;;;;;14.70;100.00;97610.63;5105887;28;20273;-65
2022/09/16 00:29:34;;;;;;;7.30;4.83;;;;;;;14.68;100.00;97616.13;5106901;28;20263;-65
2022/09/16 00:32:01;;;;;;;5.87;4.80;;;;;;;14.62;100.00;97610.53;5109537;28;20244;-66
2022/09/16 00:34:28;;;;;;;6.03;4.47;;;;;;;14.57;100.00;97607.44;5109059;28;20253;-64
2022/09/16 00:36:55;;;;;;;6.97;5.30;;;;;;;14.49;100.00;97607.34;5104451;28;20268;-64
2022/09/16 00:39:21;;;;;;;5.63;5.00;;;;;;;14.37;100.00;97600.50;5106294;28;20278;-63
2022/09/16 00:41:50;;;;;;;6.23;4.80;;;;;;;14.41;100.00;97599.22;5109408;28;20220;-63
2022/09/16 00:44:54;;;;;;;5.33;4.83;;;;;;;14.43;100.00;97599.94;5109377;28;20312;-64
2022/09/16 00:47:25;;;;;;;5.50;4.90;;;;;;;14.49;100.00;97604.69;5105143;28;20621;-63
2022/09/16 00:49:56;;;;;;;5.30;4.80;;;;;;;14.54;100.00;97608.56;5109338;28;20231;-63
2022/09/16 00:52:23;;;;;;;6.33;4.73;;;;;;;14.57;100.00;97607.44;5109474;28;20309;-64
2022/09/16 00:54:49;;;;;;;5.90;4.80;;;;;;;14.58;100.00;97611.78;5109526;28;20263;-63
2022/09/16 00:57:18;;;;;;;5.60;5.10;;;;;;;14.60;100.00;97607.19;5111637;28;20274;-63
2022/09/16 00:59:49;;;;;;;6.43;4.90;;;;;;;14.62;100.00;97611.38;5113075;28;20588;-63
2022/09/16 01:02:19;;;;;;;5.87;5.00;;;;;;;14.61;100.00;97611.50;5109142;28;20259;-63
2022/09/16 01:04:51;;;;;;;5.73;4.93;;;;;;;14.59;100.00;97614.31;5109204;28;20267;-63
2022/09/16 01:07:21;;;;;;;6.77;5.03;;;;;;;14.59;100.00;97610.81;5095290;28;20223;-63
2022/09/16 01:09:47;;;;;;;5.47;4.97;;;;;;;14.57;100.00;97616.28;5112925;28;20550;-63
2022/09/16 01:12:14;;;;;;;6.47;5.10;;;;;;;14.59;100.00;97621.44;5109180;28;20279;-63
2022/09/16 01:14:54;;;;;;;7.77;5.43;;;;;;;14.58;100.00;97615.31;5109049;28;20276;-63
2022/09/16 01:17:37;;;;;;;5.33;4.80;;;;;;;14.58;100.00;97617.09;5098857;28;20227;-64
2022/09/16 01:20:34;;;;;;;5.90;5.30;;;;;;;14.60;100.00;97612.50;5109458;28;20332;-63
2022/09/16 01:23:35;;;;;;;7.50;5.50;;;;;;;14.56;100.00;97613.75;5092437;28;20224;-64
2022/09/16 01:26:18;;;;;;;6.67;5.43;;;;;;;14.57;100.00;97612.78;5083548;28;20260;-64
2022/09/16 01:29:09;;;;;;;8.10;5.30;;;;;;;14.49;100.00;97610.00;5109328;28;20267;-64
2022/09/16 01:31:42;;;;;;;7.70;5.60;;;;;;;14.37;100.00;97608.47;5111364;28;20242;-63
2022/09/16 01:34:19;;;;;;;7.27;5.67;;;;;;;14.27;100.00;97611.16;5108537;28;20262;-64
2022/09/16 01:36:53;;;;;;;8.00;5.63;;;;;;;14.30;100.00;97613.50;5112269;28;20259;-64
2022/09/16 01:39:29;;;;;;;6.27;5.30;;;;;;;14.31;100.00;97609.03;5112260;28;20249;-63
2022/09/16 01:42:19;;;;;;;9.50;5.47;;;;;;;14.23;100.00;97619.56;5102254;28;20270;-63
2022/09/16 01:44:56;;;;;;;5.77;5.17;;;;;;;14.06;100.00;97612.25;5096572;28;20223;-64
2022/09/16 01:47:33;;;;;;;6.37;5.03;;;;;;;13.92;100.00;97617.94;5110905;28;20312;-63
2022/09/16 01:50:06;;;;;;;6.00;5.07;;;;;;;13.82;100.00;97617.13;5108361;28;20258;-63
2022/09/16 01:52:42;;;;;;;5.50;4.57;;;;;;;13.76;100.00;97623.00;5094126;28;20351;-64
2022/09/16 01:55:14;;;;;;;6.47;4.63;;;;;;;13.66;100.00;97608.84;5110942;28;20259;-63
2022/09/16 01:57:49;;;;;;;5.27;4.70;;;;;;;13.67;100.00;97606.06;5108067;28;20578;-64
2022/09/16 02:00:16;;;;;;;8.60;4.77;;;;;;;13.65;100.00;97617.78;5110842;28;20266;-64
2022/09/16 02:02:50;;;;;;;5.70;4.73;;;;;;;13.58;100.00;97612.19;5111482;28;20222;-64
2022/09/16 02:05:22;;;;;;;6.37;5.10;;;;;;;13.48;100.00;97610.47;5108404;28;20644;-64
2022/09/16 02:07:55;;;;;;;7.57;4.80;;;;;;;13.44;100.00;97603.78;5108115;28;20262;-64
2022/09/16 02:10:27;;;;;;;6.50;4.50;;;;;;;13.35;100.00;97605.44;5111695;28;20219;-63
2022/09/16 02:13:05;;;;;;;6.67;5.03;;;;;;;13.30;100.00;97612.09;5110639;28;20274;-64
2022/09/16 02:15:34;;;;;;;5.23;4.73;;;;;;;13.23;100.00;97608.31;5107861;28;20227;-65
2022/09/16 02:18:08;;;;;;;6.10;4.57;;;;;;;13.23;100.00;97597.72;5110976;28;20258;-65
2022/09/16 02:20:40;;;;;;;5.90;4.37;;;;;;;13.21;100.00;97602.31;5109805;28;20229;-65
2022/09/16 02:23:12;;;;;;;4.83;4.23;;;;;;;13.17;100.00;97592.94;5095161;28;20216;-64
2022/09/16 02:25:42;;;;;;;6.60;4.30;;;;;;;13.13;100.00;97592.38;5108904;28;20289;-64
2022/09/16 02:28:14;;;;;;;5.00;4.20;;;;;;;13.06;100.00;97601.84;5111361;28;20262;-65
2022/09/16 02:30:43;;;;;;;7.03;5.83;;;;;;;13.08;100.00;97601.72;5109569;28;20262;-64
2022/09/16 02:33:15;;;;;;;6.63;5.23;;;;;;;13.05;100.00;97607.28;5107391;28;20327;-63
2022/09/16 02:35:46;;;;;;;5.50;4.30;;;;;;;13.07;100.00;97602.69;5110467;28;20223;-64
2022/09/16 02:38:17;;;;;;;4.40;4.00;;;;;;;13.11;100.00;97601.44;5111035;28;20222;-64
2022/09/16 02:40:51;;;;;;;6.77;4.13;;;;;;;13.15;100.00;97598.38;5107468;28;20258;-63
2022/09/16 02:43:18;;;;;;;4.80;3.53;;;;;;;13.14;100.00;97602.00;5107974;28;20229;-64
2022/09/16 02:45:49;;;;;;;5.97;3.93;;;;;;;13.04;100.00;97597.66;5109249;28;20223;-63
2022/09/16 02:48:26;;;;;;;6.00;3.87;;;;;;;13.01;100.00;97600.59;5110227;28;20223;-63
2022/09/16 02:51:05;;;;;;;6.03;4.20;;;;;;;13.00;100.00;97598.88;5107000;28;20269;-65
2022/09/16 02:53:44;;;;;;;4.37;3.80;;;;;;;12.93;100.00;97603.00;5093479;28;20292;-65
2022/09/16 02:56:18;;;;;;;7.67;4.30;;;;;;;12.95;100.00;97595.78;5109543;28;20272;-64
2022/09/16 02:58:45;;;;;;;4.63;3.93;;;;;;;12.87;100.00;97600.88;5106988;28;20265;-63
2022/09/16 03:01:13;;;;;;;3.93;3.50;;;;;;;12.78;100.00;97593.75;5109512;28;20265;-64
2022/09/16 03:03:41;;;;;;;5.37;3.60;;;;;;;12.79;100.00;97596.28;5110523;28;20261;-64
2022/09/16 03:06:17;;;;;;;5.73;3.27;;;;;;;12.78;100.00;97599.88;5108459;28;20317;-64
2022/09/16 03:08:45;;;;;;;7.17;3.20;;;;;;;12.79;100.00;97600.72;5106783;28;20258;-64
2022/09/16 03:11:23;;;;;;;5.37;3.63;;;;;;;12.79;100.00;97603.38;5091205;28;20233;-65
2022/09/16 03:13:58;;;;;;;7.60;3.93;;;;;;;12.84;100.00;97603.81;5109658;28;20245;-64
2022/09/16 03:16:35;;;;;;;4.20;3.57;;;;;;;12.88;100.00;97600.75;5106564;28;20672;-64
2022/09/16 03:19:16;;;;;;;6.20;3.70;;;;;;;12.99;100.00;97600.72;5092421;28;20395;-63
2022/09/16 03:21:50;;;;;;;4.87;3.53;;;;;;;13.03;100.00;97595.97;5109392;28;20558;-63
2022/09/16 03:24:25;;;;;;;4.37;3.13;;;;;;;13.02;100.00;97599.59;5106466;28;20318;-65
2022/09/16 03:27:01;;;;;;;5.17;3.60;;;;;;;13.12;100.00;97595.16;5109823;28;20246;-64
2022/09/16 03:29:35;;;;;;;5.33;3.20;;;;;;;13.21;100.00;97595.19;5110148;28;20226;-63
2022/09/16 03:32:10;;;;;;;4.10;3.23;;;;;;;13.30;100.00;97605.00;5099816;28;20246;-64
2022/09/16 03:34:44;;;;;;;7.23;3.27;;;;;;;13.35;100.00;97596.63;5108842;28;20222;-63
2022/09/16 03:37:15;;;;;;;3.77;3.33;;;;;;;13.43;100.00;97600.28;5108237;28;20537;-64
2022/09/16 03:39:42;;;;;;;4.63;3.27;;;;;;;13.48;100.00;97589.25;5099420;28;20316;-64
2022/09/16 03:42:10;;;;;;;4.00;3.00;;;;;;;13.51;100.00;97589.00;5106294;28;20280;-63
2022/09/16 03:44:39;;;;;;;5.03;3.60;;;;;;;13.50;100.00;97593.44;5092328;28;20233;-63
2022/09/16 03:47:07;;;;;;;3.50;3.20;;;;;;;13.51;100.00;97589.00;5109967;28;20302;-63
2022/09/16 03:49:33;;;;;;;3.77;3.40;;;;;;;13.55;100.00;97593.88;5106439;28;20606;-63
2022/09/16 03:52:04;;;;;;;4.93;3.40;;;;;;;13.60;100.00;97593.47;5105985;28;20281;-63
2022/09/16 03:54:31;;;;;;;4.00;3.60;;;;;;;13.61;100.00;97587.16;5093322;28;20552;-63
2022/09/16 03:56:59;;;;;;;4.80;3.50;;;;;;;13.67;100.00;97589.28;5109950;28;20307;-63
2022/09/16 03:59:27;;;;;;;5.20;3.53;;;;;;;13.67;100.00;97597.25;5098532;28;20226;-64
2022/09/16 04:01:54;;;;;;;5.37;3.90;;;;;;;13.65;100.00;97589.44;5106173;28;20227;-67
2022/09/16 04:04:20;;;;;;;3.70;3.40;;;;;;;13.64;100.00;97595.69;5108051;28;20249;-63
2022/09/16 04:06:47;;;;;;;4.60;3.67;;;;;;;13.66;100.00;97588.44;5109656;28;20272;-64
2022/09/16 04:09:15;;;;;;;5.57;3.60;;;;;;;13.65;100.00;97593.88;5106191;28;20262;-64
2022/09/16 04:11:42;;;;;;;7.63;4.10;;;;;;;13.65;100.00;97585.94;5105948;28;20231;-64
2022/09/16 04:14:09;;;;;;;4.77;3.47;;;;;;;13.65;100.00;97594.75;5109598;28;20632;-64
2022/09/16 04:16:36;;;;;;;5.27;3.77;;;;;;;13.66;100.00;97587.59;5109487;28;20226;-64
2022/09/16 04:19:03;;;;;;;3.97;3.47;;;;;;;13.64;100.00;97579.75;5106127;28;20345;-64
2022/09/16 04:21:30;;;;;;;6.80;4.40;;;;;;;13.65;100.00;97580.63;5105693;28;20701;-64
2022/09/16 04:23:57;;;;;;;3.90;3.50;;;;;;;13.68;100.00;97580.34;5100374;28;20255;-64
2022/09/16 04:26:25;;;;;;;6.63;3.50;;;;;;;13.69;100.00;97584.69;5110057;28;20231;-64
2022/09/16 04:28:53;;;;;;;4.40;3.17;;;;;;;13.71;100.00;97575.59;5108885;28;20305;-64
2022/09/16 04:31:20;;;;;;;4.40;3.20;;;;;;;13.69;100.00;97580.19;5109808;28;20231;-64
2022/09/16 04:33:47;;;;;;;5.40;3.60;;;;;;;13.70;100.00;97573.06;5095773;28;20242;-65
2022/09/16 04:36:15;;;;;;;4.80;2.90;;;;;;;13.72;100.00;97581.72;5113536;28;20257;-65
2022/09/16 04:38:44;;;;;;;6.40;3.47;;;;;;;13.70;100.00;97578.38;5110237;28;20262;-65
2022/09/16 04:41:12;;;;;;;5.90;3.30;;;;;;;13.68;100.00;97581.19;5109557;28;20266;-65
2022/09/16 04:43:40;;;;;;;4.07;3.43;;;;;;;13.64;100.00;97570.97;5095904;28;20262;-65
2022/09/16 04:46:07;;;;;;;4.00;3.23;;;;;;;13.58;100.00;97568.88;5113303;28;20385;-63
2022/09/16 04:48:34;;;;;;;5.17;3.70;;;;;;;13.47;100.00;97576.94;5109668;28;20262;-64
2022/09/16 04:51:03;;;;;;;3.70;3.40;;;;;;;13.43;100.00;97570.22;5109238;28;20340;-64
2022/09/16 04:53:30;;;;;;;4.00;3.50;;;;;;;13.40;100.00;97570.50;5095404;28;20315;-64
2022/09/16 04:56:04;;;;;;;6.27;3.90;;;;;;;13.43;100.00;97575.53;5106993;28;20619;-64
2022/09/16 04:58:30;;;;;;;4.30;3.50;;;;;;;13.42;100.00;97585.34;5102258;28;20559;-64
2022/09/16 05:01:03;;;;;;;5.60;3.70;;;;;;;13.44;100.00;97583.38;5110050;28;20280;-64
2022/09/16 05:03:30;;;;;;;4.13;3.43;;;;;;;13.42;100.00;97584.47;5112943;28;20265;-64
2022/09/16 05:06:05;;;;;;;4.43;3.60;;;;;;;13.38;100.00;97593.72;5112287;28;20271;-64
2022/09/16 05:08:34;;;;;;;4.50;3.73;;;;;;;13.29;100.00;97590.06;5109073;28;20251;-65
2022/09/16 05:11:03;;;;;;;4.77;3.80;;;;;;;13.25;100.00;97585.97;5111825;28;20279;-64
2022/09/16 05:13:30;;;;;;;4.33;3.73;;;;;;;13.15;100.00;97597.56;5112721;28;20245;-64
2022/09/16 05:16:01;;;;;;;4.40;4.00;;;;;;;13.16;100.00;97593.91;5110581;28;20262;-64
2022/09/16 05:18:28;;;;;;;6.37;4.10;;;;;;;13.08;100.00;97581.31;5109040;28;20521;-64
2022/09/16 05:20:57;;;;;;;5.87;4.17;;;;;;;13.10;100.00;97586.50;5110072;28;20692;-64
2022/09/16 05:23:24;;;;;;;7.13;4.47;;;;;;;13.01;100.00;97574.06;5112780;28;20256;-64
2022/09/16 05:25:50;;;;;;;4.57;4.17;;;;;;;12.98;100.00;97571.66;5109757;28;20265;-64
2022/09/16 05:28:17;;;;;;;7.23;4.20;;;;;;;12.93;100.00;97571.19;5108685;28;20266;-64
2022/09/16 05:30:44;;;;;;;8.27;4.87;;;;;;;12.92;100.00;97580.13;5111889;28;20265;-64
2022/09/16 05:33:12;;;;;;;6.67;4.27;;;;;;;12.89;100.00;97575.91;5112288;28;20315;-64
2022/09/16 05:35:38;;;;;;;6.03;4.13;;;;;;;12.88;100.00;97576.03;5109812;28;20597;-65
2022/09/16 05:38:05;;;;;;;5.00;4.47;;;;;;;12.88;100.00;97576.88;5107272;28;20237;-65
2022/09/16 05:40:31;;;;;;;5.10;4.30;;;;;;;12.82;100.00;97573.91;5111487;28;20233;-65
2022/09/16 05:42:58;;;;;;;5.60;4.17;;;;;;;12.77;100.00;97576.97;5112318;28;20221;-64
2022/09/16 05:45:25;;;;;;;6.83;4.40;;;;;;;12.75;100.00;97572.78;5110264;28;20273;-64
2022/09/16 05:47:51;;;;;;;4.47;3.80;;;;;;;12.83;100.00;97580.94;5106726;28;20222;-64
2022/09/16 05:50:19;;;;;;;5.30;4.00;;;;;;;12.94;100.00;97578.16;5110610;28;20572;-64
2022/09/16 05:52:46;;;;;;;4.90;4.37;;;;;;;13.02;100.00;97587.16;5111886;28;20253;-64
2022/09/16 05:55:13;;;;;;;4.50;4.07;;;;;;;13.05;100.00;97586.91;5110338;28;20581;-64
2022/09/16 05:57:39;;;;;;;5.27;4.23;;;;;;;13.06;100.00;97587.72;5108139;28;20587;-64
2022/09/16 06:00:07;;;;;;;4.87;4.13;;;;;;;13.08;100.00;97585.81;5110171;28;20585;-64
2022/09/16 06:02:34;;;;;;;5.50;3.80;;;;;;;13.10;100.00;97594.47;5111869;28;20632;-64
2022/09/16 06:05:01;;;;;;;5.83;4.20;;;;;;;13.07;100.00;97600.03;5110423;28;20262;-64
2022/09/16 06:07:29;;;;;;;5.83;4.13;;;;;;;13.12;100.00;97597.81;5108037;28;20230;-64
2022/09/16 06:09:55;;;;;;;4.90;4.40;;;;;;;13.14;100.00;97596.69;5106330;28;20262;-64
2022/09/16 06:12:22;;;;;;;4.93;4.07;;;;;;;13.12;100.00;97598.66;5111593;28;20225;-64
2022/09/16 06:14:49;;;;;;;5.97;4.30;;;;;;;13.07;100.00;97600.88;5108822;28;20241;-64
2022/09/16 06:17:15;;;;;;;5.13;3.87;;;;;;;12.93;100.00;97600.34;5107844;28;20227;-64
2022/09/16 06:19:42;;;;;;;7.27;3.57;;;;;;;12.86;100.00;97592.09;5109158;28;20254;-64
2022/09/16 06:22:08;;;;;;;5.87;3.43;;;;;;;12.70;100.00;97596.19;5110412;28;20535;-64
2022/09/16 06:24:36;;;;;;;5.10;3.30;;;;;;;12.67;100.00;97597.31;5107477;28;20675;-64
2022/09/16 06:27:03;;;;;;;7.50;3.47;;;;;;;12.71;100.00;97604.03;5107598;28;20537;-64
2022/09/16 06:29:30;;;;;;;5.53;3.73;;;;;;;12.65;100.00;97598.41;5108760;28;20226;-64
2022/09/16 06:31:56;;;;;;;5.53;3.80;;;;;;;12.65;100.00;97603.72;5111230;28;20264;-66
2022/09/16 06:34:23;;;;;;;5.40;3.67;;;;;;;12.66;100.00;97592.16;5110660;28;20283;-64
2022/09/16 06:36:50;;;;;;;4.77;3.40;;;;;;;12.65;100.00;97601.06;5107475;28;20305;-65
2022/09/16 06:39:17;;;;;;;4.10;3.40;;;;;;;12.67;100.00;97607.94;5106272;28;20628;-63
2022/09/16 06:41:45;;;;;;;4.17;3.10;;;;;;;12.62;100.00;97601.31;5111088;28;20229;-64
2022/09/16 06:44:12;;;;;;;5.53;2.77;;;;;;;12.51;100.00;97606.69;5110888;28;20325;-70
2022/09/16 06:46:39;;;;;;;5.13;2.87;;;;;;;12.36;100.00;97621.25;5107108;28;20280;-69
2022/09/16 06:49:05;;;;;;;4.50;2.83;;;;;;;12.28;100.00;97618.41;5103670;28;20223;-70
2022/09/16 06:51:33;;;;;;;4.57;3.50;;;;;;;12.25;100.00;97616.88;5109069;28;20285;-70
2022/09/16 06:54:01;;;;;;;8.47;4.30;;;;;;;12.23;100.00;97618.78;5109324;28;20301;-70
2022/09/16 06:56:28;;;;;;;5.70;3.47;;;;;;;12.20;100.00;97607.59;5098108;28;20223;-69
2022/09/16 06:58:56;;;;;;;6.87;3.60;;;;;;;12.10;100.00;97610.19;5106058;28;20636;-67
2022/09/16 07:01:25;;;;;;;6.77;3.93;;;;;;;12.16;100.00;97607.03;5109196;28;20601;-69
2022/09/16 07:03:53;;;;;;;4.77;3.70;;;;;;;12.13;100.00;97617.03;5109412;28;20310;-70
2022/09/16 07:06:21;;;;;;;6.37;3.70;;;;;;;12.11;100.00;97614.50;5096961;28;20258;-71
2022/09/16 07:08:48;;;;;;;8.37;4.00;;;;;;;12.24;100.00;97614.34;5106399;28;20522;-67
2022/09/16 07:11:16;;;;;;;5.03;3.97;;;;;;;12.38;100.00;97619.31;5109150;28;20265;-67
2022/09/16 07:13:45;;;;;;;6.53;4.27;;;;;;;12.37;100.00;97625.59;5108952;28;20249;-68
2022/09/16 07:16:15;;;;;;;6.23;4.03;;;;;;;12.29;100.00;97623.56;5105314;28;20312;-67
2022/09/16 07:18:42;;;;;;;6.53;4.43;;;;;;;12.25;100.00;97624.81;5106740;28;20264;-71
2022/09/16 07:21:12;;;;;;;7.60;4.80;;;;;;;12.24;100.00;97622.28;5108924;28;20345;-70
2022/09/16 07:23:39;;;;;;;8.87;4.83;;;;;;;12.23;100.00;97618.78;5106246;28;20217;-71
2022/09/16 07:26:08;;;;;;;7.73;4.40;;;;;;;12.24;100.00;97614.34;5105109;28;20265;-68
2022/09/16 07:28:36;;;;;;;7.47;4.63;;;;;;;12.31;100.00;97618.16;5107034;28;20588;-68
2022/09/16 07:31:04;;;;;;;9.23;5.50;;;;;;;12.41;100.00;97616.41;5108866;28;20257;-71
2022/09/16 07:33:36;;;;;;;7.63;5.40;;;;;;;12.44;100.00;97629.38;5105798;28;20281;-69
2022/09/16 07:36:04;;;;;;;5.63;5.03;;;;;;;12.51;100.00;97628.75;5105088;28;20230;-68
2022/09/16 07:38:32;;;;;;;6.33;5.53;;;;;;;12.63;100.00;97626.84;5107765;28;20545;-67
2022/09/16 07:41:04;;;;;;;8.20;6.00;;;;;;;12.66;100.00;97616.81;5108800;28;20222;-66
2022/09/16 07:43:31;;;;;;;6.63;4.80;;;;;;;12.64;100.00;97626.72;5105851;28;20265;-67
2022/09/16 07:45:58;;;;;;;7.07;4.60;;;;;;;12.51;100.00;97623.44;5104889;28;20242;-67
2022/09/16 07:48:25;;;;;;;5.47;4.50;;;;;;;12.47;100.00;97626.50;5108144;28;20264;-67
2022/09/16 07:50:57;;;;;;;5.23;4.73;;;;;;;12.39;100.00;97634.22;5108434;28;20314;-66
2022/09/16 07:53:26;;;;;;;5.47;4.40;;;;;;;12.28;100.00;97642.28;5105005;28;20245;-66
2022/09/16 07:55:53;;;;;;;6.03;4.70;;;;;;;12.33;100.00;97629.44;5104662;28;20226;-65
2022/09/16 07:58:19;;;;;;;6.60;5.30;;;;;;;12.48;100.00;97622.88;5090981;28;20229;-66
2022/09/16 08:00:48;;;;;;;7.43;5.13;;;;;;;12.69;100.00;97616.59;5106485;28;20267;-68
2022/09/16 08:03:14;;;;;;;8.00;4.87;;;;;;;12.88;100.00;97621.13;5104783;28;20222;-69
2022/09/16 08:05:41;;;;;;;5.23;4.67;;;;;;;13.08;100.00;97625.59;5104705;28;20583;-69
2022/09/16 08:08:09;;;;;;;6.17;5.07;;;;;;;13.21;100.00;97628.84;5090457;28;20272;-69
2022/09/16 08:10:36;;;;;;;6.17;4.80;;;;;;;13.19;100.00;97631.63;5108594;28;20285;-69
2022/09/16 08:13:03;;;;;;;5.00;4.47;;;;;;;13.23;100.00;97634.84;5105456;28;20226;-69
2022/09/16 08:15:30;;;;;;;6.27;4.77;;;;;;;13.28;100.00;97635.31;5104440;28;20242;-69
2022/09/16 08:17:56;;;;;;;7.17;4.83;;;;;;;13.40;100.00;97644.84;5108065;28;20232;-69
2022/09/16 08:20:24;;;;;;;6.80;4.93;;;;;;;13.44;100.00;97651.56;5106622;28;20705;-68
2022/09/16 08:22:51;;;;;;;8.43;5.03;;;;;;;13.43;100.00;97657.81;5098529;28;20226;-69
2022/09/16 08:25:19;;;;;;;6.27;4.73;;;;;;;13.39;100.00;97646.63;5103316;28;20258;-69
2022/09/16 08:27:45;;;;;;;5.17;4.33;;;;;;;13.45;100.00;97658.56;5106909;28;20265;-69
2022/09/16 08:30:12;;;;;;;6.83;4.50;;;;;;;13.48;100.00;97663.56;5108115;28;20229;-69
2022/09/16 08:32:39;;;;;;;6.00;4.83;;;;;;;13.44;100.00;97652.41;5105609;28;20622;-69
2022/09/16 08:35:07;;;;;;;5.40;4.90;;;;;;;13.48;100.00;97666.22;5104209;28;20242;-69
2022/09/16 08:37:34;;;;;;;5.80;4.73;;;;;;;13.52;100.00;97654.38;5107598;28;20222;-69
2022/09/16 08:40:02;;;;;;;5.50;5.00;;;;;;;13.53;100.00;97656.06;5108225;28;20348;-69
2022/09/16 08:42:46;;;;;;;5.87;4.73;;;;;;;13.64;100.00;97663.91;5105948;28;20569;-70
2022/09/16 08:45:31;;;;;;;5.67;4.73;;;;;;;13.77;100.00;97659.19;5105641;28;20301;-69
2022/09/16 08:48:17;;;;;;;5.80;4.30;;;;;;;13.93;100.00;97664.81;5108208;28;20221;-69
2022/09/16 08:50:47;;;;;;;6.80;4.63;;;;;;;14.07;100.00;97672.38;5098904;28;20227;-70
2022/09/16 08:53:19;;;;;;;5.20;4.40;;;;;;;14.15;100.00;97669.84;5105390;28;20239;-70
2022/09/16 08:55:49;;;;;;;5.33;3.80;;;;;;;14.10;100.00;97674.75;5108011;28;20306;-71
2022/09/16 08:58:19;;;;;;;5.20;3.87;;;;;;;14.14;100.00;97673.50;5105258;28;20265;-70
2022/09/16 09:00:49;;;;;;;6.23;3.93;;;;;;;14.19;100.00;97671.28;5104248;28;20312;-68
2022/09/16 09:03:28;;;;;;;5.73;3.87;;;;;;;14.22;100.00;97660.38;5091046;28;20315;-68
2022/09/16 09:05:57;;;;;;;5.47;4.00;;;;;;;14.15;100.00;97670.72;5107032;28;20249;-68
2022/09/16 09:08:42;;;;;;;5.90;4.13;;;;;;;14.08;100.00;97674.91;5103426;28;20288;-68
2022/09/16 09:11:17;;;;;;;5.50;4.13;;;;;;;14.17;100.00;97670.56;5091040;28;20267;-68
2022/09/16 09:14:00;;;;;;;4.83;3.93;;;;;;;14.40;100.00;97669.31;5110037;28;20279;-68
2022/09/16 09:16:35;;;;;;;4.73;4.23;;;;;;;14.50;100.00;97670.16;5107885;28;20672;-68
2022/09/16 09:19:15;;;;;;;3.63;3.33;;;;;;;14.62;100.00;97675.22;5093291;28;20226;-68
2022/09/16 09:21:53;;;;;;;4.57;3.63;;;;;;;14.60;100.00;97665.69;5108885;28;20283;-68
2022/09/16 09:24:35;;;;;;;4.77;4.10;;;;;;;14.60;100.00;97663.03;5105332;28;20308;-67
2022/09/16 09:27:10;;;;;;;5.50;3.83;;;;;;;14.52;100.00;97657.56;5096166;28;20223;-67
2022/09/16 09:29:54;;;;;;;3.40;3.00;;;;;;;14.52;100.00;97657.56;5108995;28;20275;-68
2022/09/16 09:32:33;;;;;;;5.10;3.50;;;;;;;14.52;100.00;97660.22;5087336;28;20266;-68
2022/09/16 09:35:13;;;;;;;5.23;3.80;;;;;;;14.53;100.00;97661.91;5094943;28;20339;-67
2022/09/16 09:38:00;;;;;;;4.00;3.40;;;;;;;14.63;100.00;97657.41;5104876;28;20678;-67
2022/09/16 09:40:34;;;;;;;4.80;3.30;;;;;;;14.70;100.00;97658.50;5104350;28;20272;-68
2022/09/16 09:43:09;;;;;;;4.20;3.47;;;;;;;14.80;100.00;97660.16;5107577;28;20223;-68
2022/09/16 09:45:41;;;;;;;4.47;3.00;;;;;;;14.86;100.00;97656.13;5091868;28;20226;-68
2022/09/16 09:48:18;;;;;;;4.73;3.50;;;;;;;14.96;100.00;97662.25;5104128;28;20276;-68
2022/09/16 09:50:46;;;;;;;5.87;3.43;;;;;;;15.05;100.00;97664.03;5095056;28;20260;-68
2022/09/16 09:53:17;;;;;;;3.43;3.13;;;;;;;15.19;100.00;97658.25;5104688;28;20327;-67
2022/09/16 09:55:44;;;;;;;5.03;3.50;;;;;;;15.35;100.00;97664.69;5104403;28;20290;-67
2022/09/16 09:58:21;;;;;;;5.63;3.60;;;;;;;15.45;100.00;97669.97;5105033;28;20267;-67
2022/09/16 10:00:51;;;;;;;3.83;3.43;;;;;;;15.49;100.00;97660.66;5108455;28;20259;-67
2022/09/16 10:03:19;;;;;;;4.30;3.00;;;;;;;15.51;100.00;97664.03;5104493;28;20231;-67
2022/09/16 10:05:47;;;;;;;4.53;3.80;;;;;;;15.55;100.00;97657.41;5104237;28;20219;-67
2022/09/16 10:08:25;;;;;;;3.97;3.60;;;;;;;15.43;100.00;97655.94;5106658;28;20522;-67
2022/09/16 10:10:54;;;;;;;3.87;3.43;;;;;;;15.25;100.00;97655.84;5106874;28;20291;-67
2022/09/16 10:13:22;;;;;;;3.90;3.50;;;;;;;15.07;100.00;97660.25;5102576;28;20293;-66
2022/09/16 10:15:53;;;;;;;4.53;3.50;;;;;;;14.84;100.00;97664.22;5104258;28;20365;-67
2022/09/16 10:18:25;;;;;;;4.43;3.70;;;;;;;14.61;100.00;97662.03;5097665;28;20252;-67
2022/09/16 10:21:00;;;;;;;4.30;3.60;;;;;;;14.55;100.00;97663.44;5104259;28;20704;-66
2022/09/16 10:23:27;;;;;;;5.53;3.90;;;;;;;14.47;100.00;97665.13;5100184;28;20499;-66
2022/09/16 10:26:05;;;;;;;5.40;3.50;;;;;;;14.47;100.00;97662.47;5105482;28;20220;-66
2022/09/16 10:28:32;;;;;;;4.33;3.30;;;;;;;14.46;100.00;97658.97;5107061;28;20622;-66
2022/09/16 10:31:01;;;;;;;3.70;3.33;;;;;;;14.55;100.00;97667.94;5104111;28;20227;-66
2022/09/16 10:33:30;;;;;;;5.97;4.07;;;;;;;14.57;100.00;97661.50;5104051;28;20250;-66
2022/09/16 10:36:00;;;;;;;4.23;3.20;;;;;;;14.59;100.00;97658.66;5107556;28;20277;-66
2022/09/16 10:38:36;;;;;;;4.13;3.20;;;;;;;14.53;100.00;97662.75;5105856;28;20227;-66
2022/09/16 10:41:08;;;;;;;4.37;3.10;;;;;;;14.54;100.00;97666.25;5102407;28;20688;-66
2022/09/16 10:43:38;;;;;;;4.80;3.50;;;;;;;14.50;100.00;97660.38;5105466;28;20749;-66
2022/09/16 10:46:07;;;;;;;4.03;3.27;;;;;;;14.54;100.00;97655.63;5107306;28;20222;-66
2022/09/16 10:48:34;;;;;;;6.23;3.27;;;;;;;14.57;100.00;97645.53;5088534;28;20230;-66
2022/09/16 10:51:04;;;;;;;3.60;2.80;;;;;;;14.66;100.00;97649.97;5100884;28;20277;-67
2022/09/16 10:53:34;;;;;;;4.10;2.90;;;;;;;14.76;100.00;97652.63;5105193;28;20584;-66
2022/09/16 10:56:03;;;;;;;5.60;3.30;;;;;;;14.93;100.00;97667.84;5106081;28;20339;-66
2022/09/16 10:58:30;;;;;;;3.63;3.17;;;;;;;15.03;100.00;97668.69;5102990;28;20288;-67
2022/09/16 11:01:14;;;;;;;4.67;3.10;;;;;;;15.07;100.00;97667.38;5102971;28;20228;-67
2022/09/16 11:04:07;;;;;;;4.27;3.03;;;;;;;15.15;100.00;97668.34;5097225;28;20222;-67
2022/09/16 11:06:52;;;;;;;5.50;3.23;;;;;;;15.19;100.00;97663.56;5094280;28;20609;-67
2022/09/16 11:09:28;;;;;;;3.60;3.30;;;;;;;15.09;100.00;97668.91;5106412;28;20232;-67
2022/09/16 11:12:09;;;;;;;2.93;2.73;;;;;;;15.08;100.00;97663.75;5105122;28;20308;-67
2022/09/16 11:14:44;;;;;;;3.87;3.27;;;;;;;14.94;100.00;97664.22;5103124;28;20359;-67
2022/09/16 11:17:27;;;;;;;4.13;3.40;;;;;;;14.93;100.00;97662.53;5106352;28;20531;-67
2022/09/16 11:20:16;;;;;;;4.97;3.63;;;;;;;14.89;100.00;97662.00;5103693;28;20314;-67
2022/09/16 11:22:51;;;;;;;4.80;3.13;;;;;;;14.97;100.00;97669.25;5102901;28;20260;-67
2022/09/16 11:25:32;;;;;;;4.17;3.77;;;;;;;15.05;100.00;97675.53;5106771;28;20310;-67
2022/09/16 11:28:15;;;;;;;3.90;3.13;;;;;;;15.13;100.00;97680.97;5093759;28;20293;-67
2022/09/16 11:30:50;;;;;;;5.40;3.37;;;;;;;15.14;100.00;97676.47;5103692;28;20281;-66
2022/09/16 11:33:26;;;;;;;3.63;3.03;;;;;;;15.22;100.00;97681.94;5104844;28;20284;-67
2022/09/16 11:36:31;;;;;;;3.37;2.80;;;;;;;15.36;100.00;97673.50;5093146;28;20251;-67
2022/09/16 11:39:13;;;;;;;3.60;2.57;;;;;;;15.42;96.68;97670.25;5044077;28;20230;-67
2022/09/16 11:41:48;;;;;;;3.63;2.93;;;;;;;15.46;99.41;97676.97;5093072;28;20225;-67